Meteo Giornale » Osservazioni meteo Stati Uniti (USA) » Los Angeles

ore: 05:53 - Osservazioni Meteo Los Angeles
Lat. 33° 56' N Lon. 118° 23' W Alt. 38 metri s.l.m.

poco_nuvoloso America/Los_Angeles

7 °C

Poco Nuvoloso

Temp. 24 Ore

7 °C

16 °C

Est/Nord-Est

7.4 Km/h

Dew point -1 °C

Umidità 56 %

Visibilità  10 Km

Il sole sorge alle ore 06:27

Il sole tramonta alle ore 17:45

Data e Ora Cielo e Fenomeni T °C DP °C Um. % Pres. hPa Vis. km Vento km/h
Oggi h: 05:53 poco_nuvoloso Poco Nuvoloso 7 -1 56 1022 10 E/NE 7.4
Oggi h: 04:53 poco_nuvoloso Poco Nuvoloso 7 -1 56 1022 10 E 7.4
Oggi h: 03:53 poco_nuvoloso Poco Nuvoloso 8 -1 52 1022 10 E/NE 9.3
Oggi h: 02:53 poco_nuvoloso Poco Nuvoloso 7 -1 56 1022 10 E 9.3
Oggi h: 01:53 poco_nuvoloso Poco Nuvoloso 8 0 56 1022 10 E/NE 9.3
Oggi h: 00:53 sereno Sereno 9 0 53 1022 10 NE 7.4
Ieri h: 23:53 sereno Sereno 12 1 46 1021 10 N 0
Ieri h: 22:53 sereno Sereno 12 0 43 1021 10 N 5.5
Ieri h: 21:53 sereno Sereno 12 -1 40 1021 10 N 5.5
Ieri h: 20:53 sereno Sereno 12 -3 34 1021 14 N/NO 7.4
Ieri h: 19:53 sereno Sereno 13 -2 35 1021 10 NO 9.3
Ieri h: 18:53 sereno Sereno 13 -1 37 1020 10 O 25.9
Ieri h: 17:53 poco_nuvoloso Poco Nuvoloso 13 1 43 1020 10 O 25.9
Ieri h: 16:53 poco_nuvoloso Poco Nuvoloso 14 0 38 1020 10 O 31.5
Ieri h: 15:53 poco_nuvoloso Poco Nuvoloso 14 -1 35 1019 10 O 29.6
Ieri h: 14:53 poco_nuvoloso Poco Nuvoloso 14 1 41 1019 10 O 27.8
Ieri h: 13:53 nuvoloso Nuvoloso 15 0 35 1019 10 O/SO 25.9
Ieri h: 12:53 nuvoloso Nuvoloso 16 -2 29 1020 10 O 25.9
Ieri h: 11:53 nuvoloso Nuvoloso 14 -1 35 1020 10 O 13
Ieri h: 10:53 nuvoloso Nuvoloso 14 -1 35 1020 10 N 5.5
Ieri h: 09:53 nuvoloso Nuvoloso 14 0 38 1021 10 N 9.3
Ieri h: 08:53 nuvoloso Nuvoloso 12 -3 34 1020 10 E 11.1
Ieri h: 07:53 nuvoloso Nuvoloso 11 -4 34 1020 10 NE 7.4
Ieri h: 06:53 molto_nuvoloso Molto Nuvoloso 8 -5 39 1020 10 NE 11.1
Ieri h: 05:53 molto_nuvoloso Molto Nuvoloso 8 -5 39 1019 10 E 7.4